Kellerville, Illinois
Current Conditions -  °F | °C
As of 11:29 PM on Wednesday 26 Nov 2014 (Local Time) from KUIN Reporting Station
Haze Haze  
Wind Chill: 17°   Ceiling: 1000
Heat Index: 28°   Visibility: 3mi
Dew Point: 24°   Wind: 14mph
Humidity: 85%   Direction: 360°N
Pressure: 30.27"   Gusts: NA
Location:  39.9716°N, 90.933°W
Report Text: KUIN 270529Z AUTO 36012KT 3SM BR BKN010 OVC014 M02/M04 A3027 RMK AO2 SNB04E28 P0000 T10221044
Loading
Personal Weather Stations






























Interactive Weather Map New forecast layout! Learn more

10-Day Weather Forecast

Advertisements
Track Severe Weather on mobile